Time;durP1;ratioP1;P1;durP2;ratioP2;P2;SDS_P1;SDS_P2;PMS_P1;PMS_P2;Temp;Humidity;BMP_temperature;BMP_pressure;BME280_temperature;BME280_humidity;BME280_pressure;Samples;Min_cycle;Max_cycle;Signal;HPM_P1;HPM_P2
2023/03/09 00:00:50;;;;;;;12.73;4.55;;;;;;;7.31;100.00;97463.16;4982327;28;21092;-80
2023/03/09 00:03:17;;;;;;;12.55;3.90;;;;;;;7.31;100.00;97469.25;4978358;28;20055;-80
2023/03/09 00:05:54;;;;;;;10.18;4.55;;;;;;;7.32;100.00;97472.69;4966687;28;20062;-80
2023/03/09 00:08:20;;;;;;;8.00;3.85;;;;;;;7.36;100.00;97463.44;4999179;28;20038;-80
2023/03/09 00:10:51;;;;;;;13.23;5.15;;;;;;;7.37;100.00;97463.25;4989369;28;20133;-80
2023/03/09 00:13:19;;;;;;;15.57;5.57;;;;;;;7.39;100.00;97473.66;4973439;28;20054;-80
2023/03/09 00:15:49;;;;;;;17.63;5.65;;;;;;;7.39;100.00;97461.28;4984937;28;20548;-80
2023/03/09 00:18:17;;;;;;;12.65;5.13;;;;;;;7.38;100.00;97475.47;4968751;28;20663;-80
2023/03/09 00:20:44;;;;;;;13.45;5.22;;;;;;;7.42;100.00;97481.22;4984362;28;20098;-80
2023/03/09 00:23:11;;;;;;;13.45;5.53;;;;;;;7.43;100.00;97477.59;4989154;28;20482;-80
2023/03/09 00:25:38;;;;;;;13.10;4.88;;;;;;;7.44;100.00;97479.25;4988162;28;20049;-80
2023/03/09 00:28:05;;;;;;;19.00;5.80;;;;;;;7.47;100.00;97478.06;4957958;28;20054;-80
2023/03/09 00:30:32;;;;;;;11.80;4.35;;;;;;;7.47;100.00;97478.88;4966140;28;20101;-80
2023/03/09 00:33:00;;;;;;;11.65;3.88;;;;;;;7.46;100.00;97481.72;4969990;28;20082;-79
2023/03/09 00:35:26;;;;;;;8.48;2.75;;;;;;;7.50;100.00;97465.31;4986753;28;20050;-80
2023/03/09 00:37:54;;;;;;;11.52;2.85;;;;;;;7.51;100.00;97410.72;4978462;28;20047;-80
2023/03/09 00:40:21;;;;;;;10.57;2.60;;;;;;;7.57;100.00;97397.63;4961842;28;20043;-80
2023/03/09 00:42:48;;;;;;;4.18;1.98;;;;;;;7.58;100.00;97401.06;4973007;28;20458;-80
2023/03/09 00:45:15;;;;;;;5.00;1.60;;;;;;;7.58;100.00;97420.41;4979915;28;20498;-80
2023/03/09 00:47:42;;;;;;;2.22;1.58;;;;;;;7.60;100.00;97425.50;4980811;28;20113;-79
2023/03/09 00:50:09;;;;;;;5.22;1.85;;;;;;;7.60;100.00;97405.19;4977501;28;20049;-79
2023/03/09 00:52:36;;;;;;;4.20;1.58;;;;;;;7.64;100.00;97437.34;4970840;28;20081;-80
2023/03/09 00:55:03;;;;;;;3.05;1.00;;;;;;;7.65;100.00;97446.09;4990109;28;20066;-80
2023/03/09 00:57:30;;;;;;;8.13;1.20;;;;;;;7.68;100.00;97456.31;4969667;28;20053;-80
2023/03/09 00:59:57;;;;;;;4.38;1.00;;;;;;;7.67;100.00;97458.13;4979753;28;20097;-79
2023/03/09 01:02:24;;;;;;;2.35;0.98;;;;;;;7.67;100.00;97444.94;4983743;28;20449;-80
2023/03/09 01:04:51;;;;;;;2.55;1.10;;;;;;;7.69;100.00;97463.25;4965660;28;20042;-80
2023/03/09 01:07:18;;;;;;;4.55;1.75;;;;;;;7.70;100.00;97464.88;4979214;28;20561;-80
2023/03/09 01:09:46;;;;;;;1.75;1.10;;;;;;;7.69;100.00;97469.34;4958027;28;20058;-80
2023/03/09 01:12:13;;;;;;;7.18;1.00;;;;;;;7.71;100.00;97477.09;4948315;28;20136;-80
2023/03/09 01:14:40;;;;;;;1.63;0.90;;;;;;;7.71;100.00;97471.78;4968928;28;20050;-80
2023/03/09 01:17:07;;;;;;;1.73;1.02;;;;;;;7.69;100.00;97477.28;4943265;28;20418;-80
2023/03/09 01:19:33;;;;;;;7.63;1.38;;;;;;;7.71;100.00;97483.22;4931689;28;20041;-80
2023/03/09 01:22:00;;;;;;;3.63;1.20;;;;;;;7.72;100.00;97479.56;4947543;28;20106;-80
2023/03/09 01:24:27;;;;;;;5.25;1.48;;;;;;;7.73;100.00;97485.66;4943260;28;21025;-80
2023/03/09 01:26:55;;;;;;;4.05;1.35;;;;;;;7.74;100.00;97489.97;4983239;28;20461;-79
2023/03/09 01:29:22;;;;;;;1.58;0.90;;;;;;;7.74;100.00;97474.94;4965643;28;20232;-80
2023/03/09 01:31:48;;;;;;;2.95;0.93;;;;;;;7.75;100.00;97486.31;4962739;28;20056;-80
2023/03/09 01:34:15;;;;;;;2.88;1.13;;;;;;;7.75;100.00;97489.78;4981130;28;20046;-80
2023/03/09 01:36:42;;;;;;;2.63;0.95;;;;;;;7.75;100.00;97486.31;4978795;28;20045;-80
2023/03/09 01:39:10;;;;;;;3.40;1.63;;;;;;;7.78;100.00;97485.94;4966115;28;20049;-80
2023/03/09 01:41:37;;;;;;;1.77;0.80;;;;;;;7.79;100.00;97480.50;4983029;28;20080;-80
2023/03/09 01:44:09;;;;;;;2.55;0.93;;;;;;;7.77;100.00;97495.69;4978659;28;20051;-80
2023/03/09 01:46:48;;;;;;;2.25;1.00;;;;;;;7.77;100.00;97502.81;4981301;28;20670;-80
2023/03/09 01:49:38;;;;;;;6.38;1.52;;;;;;;7.77;100.00;97489.59;4992000;28;20047;-80
2023/03/09 01:52:11;;;;;;;3.33;1.00;;;;;;;7.76;100.00;97490.59;4970192;28;20047;-80
2023/03/09 01:54:58;;;;;;;5.93;0.97;;;;;;;7.76;100.00;97498.50;4961988;28;20053;-80
2023/03/09 01:57:33;;;;;;;3.40;1.02;;;;;;;7.76;100.00;97485.31;4965989;28;20046;-80
2023/03/09 02:00:08;;;;;;;2.92;1.45;;;;;;;7.78;100.00;97478.84;4948950;28;20042;-80
2023/03/09 02:03:18;;;;;;;6.88;1.48;;;;;;;7.79;100.00;97479.69;4867485;28;20133;-80
2023/03/09 02:05:49;;;;;;;4.78;1.10;;;;;;;7.82;100.00;97474.06;4943625;28;20121;-80
2023/03/09 02:08:17;;;;;;;9.38;1.42;;;;;;;7.84;100.00;97472.06;4946715;28;20042;-80
2023/03/09 02:10:58;;;;;;;6.97;1.65;;;;;;;7.81;100.00;97470.59;4964630;28;20112;-80
2023/03/09 02:13:30;;;;;;;2.55;1.30;;;;;;;7.85;100.00;97476.34;4980049;28;20505;-80
2023/03/09 02:15:57;;;;;;;2.55;1.25;;;;;;;7.87;100.00;97473.53;4982021;28;20047;-80
2023/03/09 02:18:24;;;;;;;3.88;1.20;;;;;;;7.88;100.00;97472.50;4957722;28;20043;-80
2023/03/09 02:21:11;;;;;;;5.05;1.80;;;;;;;7.83;100.00;97465.94;4946467;28;20047;-80
2023/03/09 02:24:05;;;;;;;5.20;1.83;;;;;;;7.86;100.00;97458.66;4966832;28;20524;-80
2023/03/09 02:27:00;;;;;;;7.97;1.67;;;;;;;7.85;100.00;97464.94;4962961;28;20507;-80
2023/03/09 02:29:28;;;;;;;7.50;2.22;;;;;;;7.91;100.00;97462.44;4900850;28;20051;-79
2023/03/09 02:31:54;;;;;;;5.03;1.80;;;;;;;7.92;100.00;97461.41;4973681;28;20043;-79
2023/03/09 02:34:21;;;;;;;3.15;1.40;;;;;;;7.93;100.00;97465.69;4967471;28;20489;-80
2023/03/09 02:36:50;;;;;;;4.63;1.42;;;;;;;7.94;100.00;97470.00;4980437;28;20061;-80
2023/03/09 02:39:35;;;;;;;3.15;1.60;;;;;;;7.91;100.00;97475.66;4980747;28;20112;-80
2023/03/09 02:42:02;;;;;;;7.15;1.90;;;;;;;7.94;100.00;97474.47;4923682;28;20053;-80
2023/03/09 02:44:30;;;;;;;2.80;1.38;;;;;;;7.99;100.00;97480.84;4976753;28;20058;-80
2023/03/09 02:46:59;;;;;;;7.35;1.60;;;;;;;7.97;100.00;97472.28;4957683;28;20390;-80
2023/03/09 02:49:27;;;;;;;8.20;1.52;;;;;;;8.03;100.00;97478.66;4968372;28;20061;-80
2023/03/09 02:51:54;;;;;;;7.20;1.48;;;;;;;8.02;100.00;97484.97;4982447;28;20051;-80
2023/03/09 02:54:20;;;;;;;10.10;1.50;;;;;;;8.02;100.00;97484.97;4998705;28;20470;-80
2023/03/09 02:56:47;;;;;;;3.58;1.52;;;;;;;8.05;100.00;97495.19;4978730;28;20053;-79
2023/03/09 02:59:14;;;;;;;5.80;3.17;;;;;;;8.05;100.00;97490.72;4986917;28;20073;-80
2023/03/09 03:01:40;;;;;;;8.63;2.05;;;;;;;8.02;100.00;97506.94;4972607;28;20046;-80
2023/03/09 03:04:07;;;;;;;6.15;1.80;;;;;;;8.05;100.00;97514.50;4973040;28;20544;-80
2023/03/09 03:06:34;;;;;;;3.40;1.30;;;;;;;8.09;100.00;97525.56;4985039;28;20055;-80
2023/03/09 03:09:01;;;;;;;4.25;1.70;;;;;;;8.08;100.00;97545.03;4977987;28;20058;-80
2023/03/09 03:11:28;;;;;;;6.75;1.60;;;;;;;8.17;100.00;97557.22;4965154;28;20129;-79
2023/03/09 03:13:58;;;;;;;6.85;1.58;;;;;;;8.16;100.00;97555.53;4956254;28;20058;-80
2023/03/09 03:16:24;;;;;;;2.38;1.40;;;;;;;8.17;100.00;97577.53;4978183;28;20469;-80
2023/03/09 03:18:51;;;;;;;2.95;1.70;;;;;;;8.17;100.00;97596.03;4974118;28;20441;-80
2023/03/09 03:21:19;;;;;;;4.85;1.35;;;;;;;8.17;100.00;97604.78;4978069;28;20057;-80
2023/03/09 03:23:45;;;;;;;7.88;1.70;;;;;;;8.16;100.00;97613.69;4990061;28;20054;-80
2023/03/09 03:26:12;;;;;;;5.35;1.40;;;;;;;8.18;100.00;97626.75;4984895;28;20046;-79
2023/03/09 03:28:44;;;;;;;4.85;1.60;;;;;;;8.17;100.00;97643.63;4998387;28;20057;-80
2023/03/09 03:31:18;;;;;;;7.53;1.48;;;;;;;8.17;100.00;97667.44;4966434;28;20135;-80
2023/03/09 03:33:47;;;;;;;3.10;1.38;;;;;;;8.17;100.00;97681.47;4965895;28;20056;-79
2023/03/09 03:36:14;;;;;;;2.72;1.50;;;;;;;8.17;100.00;97697.31;4952980;28;20046;-80
2023/03/09 03:38:43;;;;;;;6.05;2.05;;;;;;;8.27;100.00;97697.94;4975911;28;20060;-79
2023/03/09 03:41:10;;;;;;;7.03;1.50;;;;;;;8.22;100.00;97710.84;4987419;28;20113;-80
2023/03/09 03:43:39;;;;;;;5.32;1.45;;;;;;;8.18;100.00;97719.28;4982548;28;20057;-80
2023/03/09 03:46:06;;;;;;;4.80;1.15;;;;;;;8.20;100.00;97733.16;4966146;28;20548;-80
2023/03/09 03:48:33;;;;;;;7.25;1.23;;;;;;;8.20;100.00;97733.16;4953729;28;20513;-80
2023/03/09 03:51:00;;;;;;;7.90;1.55;;;;;;;8.19;100.00;97742.06;4972398;28;20065;-80
2023/03/09 03:53:27;;;;;;;2.28;1.58;;;;;;;8.19;100.00;97728.84;4980139;28;20101;-80
2023/03/09 03:55:55;;;;;;;6.03;1.83;;;;;;;8.21;100.00;97740.09;4986395;28;20100;-80
2023/03/09 03:58:21;;;;;;;4.18;1.77;;;;;;;8.19;100.00;97750.00;4980441;28;20615;-80
2023/03/09 04:00:49;;;;;;;3.00;1.35;;;;;;;8.18;100.00;97749.19;4970918;28;20077;-79
2023/03/09 04:03:18;;;;;;;9.35;2.60;;;;;;;8.17;100.00;97747.56;4966283;28;20493;-79
2023/03/09 04:05:46;;;;;;;4.22;1.90;;;;;;;8.18;100.00;97751.81;4984270;28;20053;-79
2023/03/09 04:08:15;;;;;;;3.50;1.67;;;;;;;8.17;100.00;97763.41;4954431;28;20042;-80
2023/03/09 04:10:43;;;;;;;5.78;1.38;;;;;;;8.17;100.00;97770.53;4935939;28;20409;-80
2023/03/09 04:13:13;;;;;;;12.10;2.05;;;;;;;8.18;100.00;97769.53;4992522;28;20055;-79
2023/03/09 04:15:41;;;;;;;4.85;1.65;;;;;;;8.17;100.00;97771.34;4954581;28;20051;-79
2023/03/09 04:18:08;;;;;;;3.90;1.95;;;;;;;8.18;100.00;97780.09;4970099;28;20062;-80
2023/03/09 04:20:37;;;;;;;4.03;1.92;;;;;;;8.17;100.00;97776.63;4956197;28;20047;-80
2023/03/09 04:23:04;;;;;;;3.60;1.73;;;;;;;8.18;100.00;97791.47;4965034;28;20490;-80
2023/03/09 04:25:31;;;;;;;7.72;1.90;;;;;;;8.18;100.00;97796.78;4936634;28;20122;-80
2023/03/09 04:28:01;;;;;;;7.60;1.63;;;;;;;8.19;100.00;97802.88;4966875;28;20077;-80
2023/03/09 04:30:41;;;;;;;5.60;2.05;;;;;;;8.12;100.00;97809.88;4966760;28;20050;-80
2023/03/09 04:33:11;;;;;;;3.25;2.13;;;;;;;8.16;100.00;97808.50;4978249;28;20054;-80
2023/03/09 04:35:38;;;;;;;2.78;1.30;;;;;;;8.18;100.00;97807.34;4990653;28;20051;-80
2023/03/09 04:38:10;;;;;;;6.03;1.50;;;;;;;8.17;100.00;97807.53;4982117;28;20378;-80
2023/03/09 04:40:39;;;;;;;2.88;1.20;;;;;;;8.18;100.00;97807.34;4984855;28;20512;-80
2023/03/09 04:43:06;;;;;;;4.63;1.25;;;;;;;8.19;100.00;97818.75;4954808;28;20570;-80
2023/03/09 04:45:34;;;;;;;6.80;1.58;;;;;;;8.19;100.00;97816.94;4966773;28;20054;-80
2023/03/09 04:48:01;;;;;;;8.15;1.42;;;;;;;8.20;100.00;97820.41;4983248;28;20061;-80
2023/03/09 04:50:29;;;;;;;8.55;1.35;;;;;;;8.18;100.00;97819.75;4989657;28;20046;-80
2023/03/09 04:53:00;;;;;;;2.60;1.48;;;;;;;8.20;100.00;97829.16;4957928;28;20057;-80
2023/03/09 04:55:29;;;;;;;4.03;1.67;;;;;;;8.17;100.00;97833.97;4967246;28;20066;-80
2023/03/09 04:57:58;;;;;;;5.22;1.60;;;;;;;8.18;100.00;97849.66;4991567;28;20098;-80
2023/03/09 05:00:25;;;;;;;6.43;2.20;;;;;;;8.17;100.00;97850.66;4969240;28;20100;-81
2023/03/09 05:02:52;;;;;;;6.93;2.70;;;;;;;8.17;100.00;97852.47;4964390;28;20043;-81
2023/03/09 05:05:20;;;;;;;8.93;4.05;;;;;;;8.18;100.00;97862.88;4954199;28;20055;-82
2023/03/09 05:07:51;;;;;;;7.93;2.78;;;;;;;8.19;100.00;97858.41;4985947;28;20045;-80
2023/03/09 05:10:18;;;;;;;8.32;2.67;;;;;;;8.21;100.00;97865.16;4965704;28;20130;-81
2023/03/09 05:12:47;;;;;;;3.63;2.17;;;;;;;8.22;100.00;97866.00;4981928;28;20086;-81
2023/03/09 05:15:17;;;;;;;14.30;3.40;;;;;;;8.23;100.00;97886.16;4973601;28;20058;-81
2023/03/09 05:17:45;;;;;;;7.25;2.00;;;;;;;8.23;100.00;97900.19;4969158;28;20496;-81
2023/03/09 05:20:12;;;;;;;11.68;2.90;;;;;;;8.23;100.00;97891.44;4970158;28;20046;-81
2023/03/09 05:22:47;;;;;;;12.45;2.38;;;;;;;8.24;100.00;97901.03;4960752;28;20113;-79
2023/03/09 05:25:14;;;;;;;8.82;2.28;;;;;;;8.22;100.00;97906.50;4977252;28;20110;-83
2023/03/09 05:27:42;;;;;;;9.70;2.08;;;;;;;8.22;100.00;97911.78;4946763;28;20973;-80
2023/03/09 05:30:09;;;;;;;10.88;3.05;;;;;;;8.24;100.00;97917.72;4959722;28;20039;-81
2023/03/09 05:32:39;;;;;;;10.32;2.95;;;;;;;8.25;100.00;97919.38;4989134;28;20055;-79
2023/03/09 05:35:07;;;;;;;5.43;1.52;;;;;;;8.27;100.00;97924.50;4975119;28;20149;-82
2023/03/09 05:37:34;;;;;;;8.05;2.20;;;;;;;8.24;100.00;97925.66;4963671;28;20489;-82
2023/03/09 05:40:09;;;;;;;8.70;1.70;;;;;;;8.25;100.00;97921.19;4981814;28;20152;-81
2023/03/09 05:42:38;;;;;;;9.90;2.10;;;;;;;8.24;100.00;97930.94;4969351;28;20043;-82
2023/03/09 05:45:05;;;;;;;12.18;1.73;;;;;;;8.25;100.00;97929.13;4943727;28;20101;-82
2023/03/09 05:47:32;;;;;;;11.10;2.47;;;;;;;8.24;100.00;97935.38;4959224;28;20398;-82
2023/03/09 05:49:58;;;;;;;14.73;2.15;;;;;;;8.24;100.00;97940.69;4945865;28;20129;-82
2023/03/09 05:52:25;;;;;;;18.80;3.55;;;;;;;8.15;100.00;97937.22;4968071;28;20055;-82
2023/03/09 05:54:55;;;;;;;20.05;2.90;;;;;;;8.17;100.00;97959.06;4958142;28;20501;-82
2023/03/09 05:57:22;;;;;;;10.23;2.58;;;;;;;8.21;100.00;97967.47;4984086;28;20124;-82
2023/03/09 05:59:51;;;;;;;12.52;3.90;;;;;;;8.21;100.00;97970.91;4960528;28;20042;-81
2023/03/09 06:02:19;;;;;;;15.57;2.58;;;;;;;8.22;100.00;97964.66;4964468;28;20498;-82
2023/03/09 06:04:52;;;;;;;17.08;2.03;;;;;;;8.16;100.00;97962.66;4952563;28;20061;-81
2023/03/09 06:07:21;;;;;;;12.43;2.03;;;;;;;8.18;100.00;97975.72;4980719;28;20133;-81
2023/03/09 06:09:49;;;;;;;13.55;2.97;;;;;;;8.20;100.00;97986.97;4957929;28;20053;-82
2023/03/09 06:12:23;;;;;;;18.20;2.38;;;;;;;8.20;100.00;97994.91;4945851;28;20752;-82
2023/03/09 06:14:52;;;;;;;8.55;1.70;;;;;;;8.24;100.00;97999.69;4920234;28;20050;-82
2023/03/09 06:17:23;;;;;;;12.80;2.20;;;;;;;8.25;100.00;98022.50;4929308;28;20039;-82
2023/03/09 06:19:50;;;;;;;19.10;2.70;;;;;;;8.26;100.00;98015.38;4946810;28;20058;-82
2023/03/09 06:22:17;;;;;;;12.63;1.70;;;;;;;8.22;100.00;98014.09;4965855;28;20050;-82
2023/03/09 06:24:43;;;;;;;8.18;2.00;;;;;;;8.27;100.00;98025.00;4944158;28;20079;-82
2023/03/09 06:27:13;;;;;;;8.90;2.33;;;;;;;8.30;100.00;98035.22;4949740;28;20063;-81
2023/03/09 06:29:41;;;;;;;15.75;2.95;;;;;;;8.30;100.00;98010.59;4948596;28;20059;-82
2023/03/09 06:32:08;;;;;;;19.00;2.28;;;;;;;8.31;100.00;98028.13;4965946;28;20051;-83
2023/03/09 06:34:37;;;;;;;12.60;2.65;;;;;;;8.32;100.00;98024.47;4951002;28;20411;-82
2023/03/09 06:37:07;;;;;;;11.98;2.67;;;;;;;8.33;100.00;98028.78;4943082;28;20039;-81
2023/03/09 06:39:34;;;;;;;20.65;3.28;;;;;;;8.34;100.00;98038.34;4967231;28;20507;-82
2023/03/09 06:42:01;;;;;;;13.70;2.72;;;;;;;8.39;100.00;98046.63;4974965;28;20116;-81
2023/03/09 06:44:36;;;;;;;9.68;2.83;;;;;;;8.40;100.00;98058.91;4954475;28;20053;-82
2023/03/09 06:47:03;;;;;;;13.93;2.83;;;;;;;8.40;100.00;98049.13;4981910;28;20062;-82
2023/03/09 06:49:30;;;;;;;18.25;2.38;;;;;;;8.42;100.00;98057.75;4963940;28;20050;-82
2023/03/09 06:52:03;;;;;;;14.55;2.88;;;;;;;8.44;100.00;98057.56;4994379;28;20149;-83
2023/03/09 06:54:29;;;;;;;17.05;3.60;;;;;;;8.45;100.00;98072.44;4987075;28;20046;-82
2023/03/09 06:57:05;;;;;;;9.15;2.35;;;;;;;8.47;100.00;98083.66;4983861;28;20519;-82
2023/03/09 06:59:32;;;;;;;14.43;3.35;;;;;;;8.46;100.00;98087.31;4984972;28;20047;-82
2023/03/09 07:02:00;;;;;;;16.58;3.90;;;;;;;8.44;100.00;98084.00;4968700;28;20047;-82
2023/03/09 07:04:27;;;;;;;15.10;2.80;;;;;;;8.50;100.00;98090.44;4950854;28;20047;-82
2023/03/09 07:06:54;;;;;;;22.75;4.03;;;;;;;8.46;100.00;98097.91;4974229;28;20051;-82
2023/03/09 07:09:21;;;;;;;11.00;2.90;;;;;;;8.46;100.00;98104.00;4984606;28;20046;-82
2023/03/09 07:11:48;;;;;;;15.52;2.90;;;;;;;8.50;100.00;98115.09;4954359;28;20054;-82
2023/03/09 07:14:15;;;;;;;19.38;3.90;;;;;;;8.51;100.00;98129.97;4991369;28;20074;-82
2023/03/09 07:16:42;;;;;;;14.35;3.33;;;;;;;8.53;100.00;98135.94;4982622;28;20378;-81
2023/03/09 07:19:09;;;;;;;15.75;2.63;;;;;;;8.54;100.00;98132.28;4998641;28;20054;-82
2023/03/09 07:21:36;;;;;;;12.63;3.08;;;;;;;8.57;100.00;98139.06;4982724;28;22663;-82
2023/03/09 07:24:03;;;;;;;16.23;3.92;;;;;;;8.56;100.00;98135.59;4951461;28;20047;-82
2023/03/09 07:26:30;;;;;;;17.65;2.95;;;;;;;8.54;100.00;98137.56;4952944;28;20347;-81
2023/03/09 07:28:56;;;;;;;13.75;3.58;;;;;;;8.55;100.00;98157.78;4960910;28;20054;-82
2023/03/09 07:31:23;;;;;;;19.08;3.22;;;;;;;8.58;100.00;98153.97;4947369;28;20051;-82
2023/03/09 07:33:50;;;;;;;12.25;3.30;;;;;;;8.58;100.00;98148.69;4952864;28;20045;-81
2023/03/09 07:36:17;;;;;;;15.88;3.78;;;;;;;8.59;100.00;98156.44;4966220;28;20046;-82
2023/03/09 07:38:44;;;;;;;20.27;4.63;;;;;;;8.62;100.00;98164.03;4963987;28;20132;-81
2023/03/09 07:41:10;;;;;;;20.17;4.10;;;;;;;8.64;100.00;98172.63;4947657;28;20039;-81
2023/03/09 07:43:43;;;;;;;17.70;3.42;;;;;;;8.66;100.00;98173.31;4984211;28;20125;-82
2023/03/09 07:46:18;;;;;;;15.45;2.83;;;;;;;8.66;100.00;98173.31;4976842;28;20091;-82
2023/03/09 07:48:45;;;;;;;23.13;3.63;;;;;;;8.68;100.00;98186.38;4957300;28;20043;-82
2023/03/09 07:51:12;;;;;;;18.88;3.28;;;;;;;8.67;100.00;98179.41;4959349;28;20393;-82
2023/03/09 07:53:39;;;;;;;26.65;3.35;;;;;;;8.71;100.00;98193.16;4950265;28;20479;-82
2023/03/09 07:56:07;;;;;;;26.40;3.83;;;;;;;8.71;100.00;98183.41;4969898;28;20039;-82
2023/03/09 07:58:36;;;;;;;19.25;3.42;;;;;;;8.75;100.00;98190.03;4962347;28;20047;-82
2023/03/09 08:01:03;;;;;;;15.35;3.15;;;;;;;8.80;100.00;98213.34;4958243;28;20054;-82
2023/03/09 08:03:30;;;;;;;29.13;4.38;;;;;;;8.78;100.00;98207.41;4960020;28;20050;-82
2023/03/09 08:06:00;;;;;;;9.60;2.80;;;;;;;8.80;100.00;98206.25;4946882;28;20042;-82
2023/03/09 08:08:27;;;;;;;14.38;3.10;;;;;;;8.79;100.00;98212.50;4965839;28;20039;-82
2023/03/09 08:10:54;;;;;;;17.85;2.63;;;;;;;8.80;100.00;98224.78;4967877;28;20047;-82
2023/03/09 08:13:21;;;;;;;21.65;2.63;;;;;;;8.80;100.00;98223.91;4966917;28;20140;-82
2023/03/09 08:15:49;;;;;;;21.80;4.10;;;;;;;8.83;100.00;98226.28;4978624;28;20046;-82
2023/03/09 08:18:17;;;;;;;18.00;3.13;;;;;;;8.81;100.00;98226.41;4984583;28;20051;-82
2023/03/09 08:20:44;;;;;;;22.65;3.42;;;;;;;8.83;100.00;98232.38;4973881;28;20053;-82
2023/03/09 08:23:11;;;;;;;14.43;4.03;;;;;;;8.85;100.00;98241.00;4970691;28;20076;-82
2023/03/09 08:25:38;;;;;;;14.85;3.33;;;;;;;8.84;100.00;98235.84;4978013;28;20042;-81
2023/03/09 08:28:04;;;;;;;21.00;3.42;;;;;;;8.84;100.00;98241.97;4984132;28;20405;-81
2023/03/09 08:30:31;;;;;;;15.90;3.38;;;;;;;8.87;100.00;98238.16;4964727;28;20043;-81
2023/03/09 08:32:58;;;;;;;11.95;3.45;;;;;;;8.91;100.00;98247.44;4972162;28;20108;-82
2023/03/09 08:35:30;;;;;;;14.55;3.00;;;;;;;8.94;100.00;98259.53;4977003;28;20038;-82
2023/03/09 08:37:56;;;;;;;27.33;4.50;;;;;;;8.97;100.00;98257.38;4975793;28;22594;-82
2023/03/09 08:40:23;;;;;;;23.25;3.55;;;;;;;9.01;100.00;98256.06;4926912;28;20090;-81
2023/03/09 08:42:50;;;;;;;20.42;3.58;;;;;;;9.05;100.00;98264.47;4950541;28;20146;-81
2023/03/09 08:45:17;;;;;;;17.95;2.65;;;;;;;9.07;100.00;98260.69;4949480;28;20042;-82
2023/03/09 08:47:44;;;;;;;16.85;3.50;;;;;;;9.10;100.00;98280.69;4958198;28;20039;-81
2023/03/09 08:50:11;;;;;;;9.70;2.30;;;;;;;9.13;100.00;98262.69;4949276;28;20047;-82
2023/03/09 08:52:39;;;;;;;9.55;1.92;;;;;;;9.20;100.00;98276.06;4948223;28;20431;-82
2023/03/09 08:55:08;;;;;;;12.77;2.28;;;;;;;9.23;100.00;98280.22;4958229;28;20204;-82
2023/03/09 08:57:34;;;;;;;11.73;2.67;;;;;;;9.23;100.00;98281.03;4931372;28;20069;-82
2023/03/09 09:00:01;;;;;;;11.18;1.92;;;;;;;9.25;100.00;98284.34;4946651;28;20066;-82
2023/03/09 09:02:28;;;;;;;15.05;3.65;;;;;;;9.28;100.00;98294.59;4976114;28;20708;-82
2023/03/09 09:04:55;;;;;;;16.05;2.42;;;;;;;9.33;100.00;98302.06;4967995;28;20046;-82
2023/03/09 09:07:22;;;;;;;8.35;1.92;;;;;;;9.33;100.00;98308.19;4985143;28;20818;-82
2023/03/09 09:09:49;;;;;;;16.60;3.17;;;;;;;9.33;100.00;98317.97;4979186;28;20041;-82
2023/03/09 09:12:16;;;;;;;15.40;2.05;;;;;;;9.31;100.00;98315.50;4981518;28;20042;-82
2023/03/09 09:14:42;;;;;;;20.05;4.22;;;;;;;9.31;100.00;98315.50;4980798;28;20046;-82
2023/03/09 09:17:11;;;;;;;12.35;2.95;;;;;;;9.29;100.00;98314.81;4977977;28;20093;-82
2023/03/09 09:19:38;;;;;;;10.82;2.28;;;;;;;9.27;100.00;98326.56;4969053;28;20053;-82
2023/03/09 09:22:06;;;;;;;11.45;2.35;;;;;;;9.27;100.00;98331.88;4973314;28;20601;-82
2023/03/09 09:24:36;;;;;;;11.43;2.78;;;;;;;9.27;100.00;98329.22;4976554;28;20058;-82
2023/03/09 09:27:05;;;;;;;18.73;3.47;;;;;;;9.27;100.00;98334.53;4977818;28;20043;-82
2023/03/09 09:29:32;;;;;;;13.90;2.63;;;;;;;9.26;100.00;98341.66;4969056;28;20386;-82
2023/03/09 09:31:59;;;;;;;17.23;2.25;;;;;;;9.26;100.00;98341.66;4976945;28;20943;-82
2023/03/09 09:34:31;;;;;;;22.35;2.78;;;;;;;9.27;100.00;98345.13;4988408;28;20050;-82
2023/03/09 09:37:00;;;;;;;10.55;2.05;;;;;;;9.30;100.00;98342.13;4977888;28;20056;-82
2023/03/09 09:39:31;;;;;;;18.15;2.97;;;;;;;9.33;100.00;98355.03;4968813;28;20049;-82
2023/03/09 09:42:01;;;;;;;14.40;2.47;;;;;;;9.34;100.00;98356.72;4966276;28;20620;-82
2023/03/09 09:44:30;;;;;;;20.88;2.72;;;;;;;9.34;100.00;98364.66;5000320;28;20125;-82
2023/03/09 09:46:59;;;;;;;17.27;2.47;;;;;;;9.37;100.00;98364.34;4982426;28;20662;-82
2023/03/09 09:49:28;;;;;;;17.92;2.78;;;;;;;9.37;100.00;98350.25;4973388;28;20482;-82
2023/03/09 09:52:04;;;;;;;22.00;3.42;;;;;;;9.38;100.00;98371.28;4965207;28;20050;-82
2023/03/09 09:54:34;;;;;;;16.40;2.38;;;;;;;9.40;100.00;98373.78;4979314;28;20038;-82
2023/03/09 09:57:03;;;;;;;14.98;2.47;;;;;;;9.41;100.00;98381.53;4974171;28;20109;-82
2023/03/09 09:59:56;;;;;;;18.38;2.67;;;;;;;9.42;100.00;98385.03;4966537;28;20042;-82
2023/03/09 10:02:52;;;;;;;15.73;2.87;;;;;;;9.39;100.00;98393.28;4993164;28;20083;-82
2023/03/09 10:05:48;;;;;;;9.65;3.17;;;;;;;9.34;100.00;98375.25;4942157;28;20091;-82
2023/03/09 10:08:39;;;;;;;13.40;2.70;;;;;;;9.38;100.00;98387.16;4984138;28;20116;-82
2023/03/09 10:11:23;;;;;;;17.95;2.47;;;;;;;9.44;100.00;98385.69;4949202;28;20065;-82
2023/03/09 10:13:51;;;;;;;;;;;;;;;9.34;100.00;98380.56;4996099;28;20061;-82
2023/03/09 10:16:25;;;;;;;10.00;2.50;;;;;;;9.42;100.00;98391.16;4996635;28;19922;-82
2023/03/09 10:19:00;;;;;;;16.35;2.90;;;;;;;9.43;100.00;98402.59;4996299;28;20049;-82
2023/03/09 10:21:51;;;;;;;19.50;4.00;;;;;;;9.41;100.00;98389.50;5005324;28;20072;-81
2023/03/09 10:24:27;;;;;;;12.40;3.35;;;;;;;9.46;100.00;98391.66;4924785;28;20102;-82
2023/03/09 10:27:00;;;;;;;17.35;2.65;;;;;;;9.49;100.00;98394.81;4977144;28;20045;-82
2023/03/09 10:29:42;;;;;;;16.08;2.80;;;;;;;9.48;100.00;98389.69;4977320;28;20049;-82
2023/03/09 10:32:18;;;;;;;16.00;2.72;;;;;;;9.49;100.00;98389.53;4995669;28;20046;-82
2023/03/09 10:34:57;;;;;;;7.65;2.33;;;;;;;9.51;100.00;98390.16;5005048;28;20046;-82
2023/03/09 10:37:27;;;;;;;12.23;2.65;;;;;;;9.56;100.00;98390.50;4980893;28;20070;-82
2023/03/09 10:39:54;;;;;;;12.05;2.25;;;;;;;9.56;100.00;98409.03;4985450;28;20046;-82
2023/03/09 10:42:26;;;;;;;13.20;2.55;;;;;;;9.60;100.00;98408.75;4967024;28;20062;-82
2023/03/09 10:45:09;;;;;;;14.63;3.47;;;;;;;9.60;100.00;98400.78;4981063;28;20109;-82
2023/03/09 10:48:05;;;;;;;17.55;4.30;;;;;;;9.59;100.00;98407.88;4978711;28;20046;-82
2023/03/09 10:50:34;;;;;;;14.57;2.60;;;;;;;9.69;100.00;98411.25;4902235;28;20047;-82
2023/03/09 10:53:22;;;;;;;14.88;5.60;;;;;;;9.63;99.71;98419.00;4994844;28;20047;-83
2023/03/09 10:55:51;;;;;;;11.13;2.42;;;;;;;9.73;100.00;98419.69;4948659;28;20535;-82
2023/03/09 10:58:31;;;;;;;13.32;2.60;;;;;;;9.75;100.00;98413.22;4966615;28;20067;-83
2023/03/09 11:01:17;;;;;;;10.93;2.60;;;;;;;9.72;99.65;98426.81;4967584;28;20125;-82
2023/03/09 11:03:44;;;;;;;14.18;2.25;;;;;;;9.77;99.96;98423.66;4944264;28;20063;-83
2023/03/09 11:06:11;;;;;;;19.55;3.10;;;;;;;9.75;99.96;98415.88;4959809;28;20047;-82
2023/03/09 11:08:40;;;;;;;12.88;2.88;;;;;;;9.81;100.00;98429.44;4971759;28;20113;-82
2023/03/09 11:11:26;;;;;;;11.60;1.92;;;;;;;9.82;99.92;98429.31;4992674;28;20495;-81
2023/03/09 11:13:53;;;;;;;15.38;3.03;;;;;;;9.84;99.84;98431.78;4970520;28;20400;-82
2023/03/09 11:16:24;;;;;;;11.68;2.17;;;;;;;9.87;99.97;98431.44;4964836;28;20413;-83
2023/03/09 11:19:09;;;;;;;6.38;1.48;;;;;;;9.82;99.00;98420.50;4988411;28;20492;-82
2023/03/09 11:21:36;;;;;;;10.23;1.30;;;;;;;9.85;99.18;98431.63;4991089;28;20046;-82
2023/03/09 11:24:03;;;;;;;8.13;1.35;;;;;;;9.87;99.43;98434.09;4986120;28;20500;-82
2023/03/09 11:26:49;;;;;;;9.70;2.13;;;;;;;9.88;99.49;98436.56;4988592;28;20042;-82
2023/03/09 11:29:34;;;;;;;7.65;1.55;;;;;;;9.92;99.66;98450.31;4998082;28;20105;-82
2023/03/09 11:32:01;;;;;;;12.15;1.88;;;;;;;9.91;99.26;98444.19;4981046;28;20053;-83
2023/03/09 11:34:32;;;;;;;19.02;4.72;;;;;;;9.93;98.67;98441.38;4960542;28;20121;-82
2023/03/09 11:37:11;;;;;;;7.13;2.08;;;;;;;9.92;98.07;98445.03;4947682;28;20047;-82
2023/03/09 11:39:54;;;;;;;15.43;2.28;;;;;;;9.92;98.40;98443.22;4998000;28;20053;-82
2023/03/09 11:42:30;;;;;;;;;;;;;;;9.86;98.37;98443.88;4933459;28;20058;-83